Time;durP1;ratioP1;P1;durP2;ratioP2;P2;SDS_P1;SDS_P2;PMS_P1;PMS_P2;Temp;Humidity;BMP_temperature;BMP_pressure;BME280_temperature;BME280_humidity;BME280_pressure;Samples;Min_cycle;Max_cycle;Signal;HPM_P1;HPM_P2
2022/03/02 00:01:27;;;;;;;10.10;5.17;;;;;;;-0.47;71.14;100192.38;8349266;28;20088;-72
2022/03/02 00:05:29;;;;;;;9.97;5.47;;;;;;;-0.43;71.46;100193.41;8379235;28;20299;-72
2022/03/02 00:09:30;;;;;;;7.07;4.50;;;;;;;-0.44;71.56;100184.88;8370966;28;20140;-72
2022/03/02 00:13:32;;;;;;;7.23;4.97;;;;;;;-0.45;71.77;100185.66;8380005;28;20048;-72
2022/03/02 00:17:34;;;;;;;9.93;4.67;;;;;;;-0.47;71.61;100194.06;8378252;28;20375;-72
2022/03/02 00:21:35;;;;;;;7.40;5.10;;;;;;;-0.49;72.31;100186.31;8370344;28;20044;-72
2022/03/02 00:25:37;;;;;;;9.00;4.28;;;;;;;-0.50;71.94;100187.13;8363549;28;20361;-72
2022/03/02 00:29:38;;;;;;;7.87;4.97;;;;;;;-0.51;71.61;100177.72;8350775;28;20164;-72
2022/03/02 00:33:40;;;;;;;12.80;5.17;;;;;;;-0.51;72.39;100175.16;8670621;22;20452;-72
2022/03/02 00:37:41;;;;;;;8.83;4.57;;;;;;;-0.51;71.85;100159.88;8320307;28;20144;-72
2022/03/02 00:41:43;;;;;;;8.50;4.67;;;;;;;-0.56;71.52;100168.94;8315754;28;20063;-72
2022/03/02 00:45:44;;;;;;;8.73;5.03;;;;;;;-0.74;71.36;100168.84;8314763;28;20507;-73
2022/03/02 00:49:46;;;;;;;8.07;4.60;;;;;;;-0.74;71.96;100153.53;8317103;28;20052;-72
2022/03/02 00:53:48;;;;;;;7.23;4.50;;;;;;;-0.71;72.22;100150.31;8314405;28;20136;-73
2022/03/02 00:57:49;;;;;;;10.00;5.23;;;;;;;-0.75;73.10;100150.91;8326912;28;20049;-72
2022/03/02 01:01:51;;;;;;;9.43;4.90;;;;;;;-0.77;72.43;100147.41;8318184;28;20309;-72
2022/03/02 01:05:53;;;;;;;9.30;5.37;;;;;;;-0.82;73.05;100151.41;8321626;28;20084;-72
2022/03/02 01:09:54;;;;;;;5.50;4.37;;;;;;;-0.83;72.92;100145.44;8300819;28;20061;-73
2022/03/02 01:13:56;;;;;;;6.63;4.23;;;;;;;-0.78;74.12;100135.47;8323430;28;20156;-73
2022/03/02 01:17:57;;;;;;;7.47;4.83;;;;;;;-0.80;73.97;100134.50;8319753;28;20105;-73
2022/03/02 01:21:59;;;;;;;7.83;4.77;;;;;;;-0.78;73.97;100127.81;8318068;28;20131;-73
2022/03/02 01:26:00;;;;;;;7.80;4.57;;;;;;;-0.81;73.98;100123.44;8325546;28;20089;-72
2022/03/02 01:30:04;;;;;;;7.60;4.63;;;;;;;-0.81;73.86;100122.56;8311187;28;20049;-72
2022/03/02 01:34:06;;;;;;;7.60;5.00;;;;;;;-0.84;73.69;100115.63;8302273;28;20053;-72
2022/03/02 01:38:07;;;;;;;8.13;4.87;;;;;;;-0.99;73.61;100112.28;8305732;28;20061;-72
2022/03/02 01:42:10;;;;;;;7.60;4.37;;;;;;;-1.04;73.89;100111.16;8313291;28;20132;-72
2022/03/02 01:46:12;;;;;;;9.63;5.20;;;;;;;-1.05;74.12;100110.28;8292440;28;20165;-72
2022/03/02 01:50:15;;;;;;;9.70;5.10;;;;;;;-1.08;73.91;100104.13;8306085;28;20099;-72
2022/03/02 01:54:17;;;;;;;6.55;4.93;;;;;;;-1.14;73.93;100089.41;8306335;28;20059;-72
2022/03/02 01:58:18;;;;;;;7.67;4.60;;;;;;;-1.19;73.22;100090.84;8305393;28;20107;-73
2022/03/02 02:02:20;;;;;;;9.80;5.40;;;;;;;-1.22;73.75;100081.38;8302806;28;20053;-72
2022/03/02 02:06:21;;;;;;;8.18;5.55;;;;;;;-1.27;74.49;100072.56;8289810;28;20050;-72
2022/03/02 02:10:23;;;;;;;6.63;4.67;;;;;;;-1.33;74.35;100071.38;8303481;28;20060;-72
2022/03/02 02:14:26;;;;;;;8.85;5.18;;;;;;;-1.40;74.49;100054.91;8291455;28;20321;-73
2022/03/02 02:18:28;;;;;;;5.63;3.88;;;;;;;-1.43;74.38;100049.66;8291819;28;20067;-72
2022/03/02 02:22:29;;;;;;;9.50;5.80;;;;;;;-1.45;75.13;100038.47;8310072;28;20060;-73
2022/03/02 02:26:31;;;;;;;9.23;5.60;;;;;;;-1.50;75.51;100042.47;8304626;28;20049;-73
2022/03/02 02:30:33;;;;;;;8.18;5.72;;;;;;;-1.55;75.32;100029.50;8299248;28;20053;-73
2022/03/02 02:34:35;;;;;;;10.43;5.73;;;;;;;-1.59;75.19;100034.34;8306559;28;20361;-73
2022/03/02 02:38:36;;;;;;;8.45;6.00;;;;;;;-1.58;76.42;100028.47;8300739;28;20056;-73
2022/03/02 02:42:41;;;;;;;9.60;6.20;;;;;;;-1.64;75.44;100026.44;8306404;28;20187;-73
2022/03/02 02:46:44;;;;;;;19.67;7.00;;;;;;;-1.59;76.42;100026.72;8300114;28;20369;-73
2022/03/02 02:50:46;;;;;;;;;;;;;;;-1.57;75.78;100017.47;8303991;28;20061;-73
2022/03/02 02:54:50;;;;;;;9.97;5.70;;;;;;;-1.61;76.76;100019.00;8304188;28;20603;-73
2022/03/02 02:58:52;;;;;;;10.53;6.33;;;;;;;-1.60;77.32;100014.78;8287760;28;20057;-73
2022/03/02 03:02:54;;;;;;;11.43;6.40;;;;;;;-1.64;76.77;100016.25;8302756;28;20171;-72
2022/03/02 03:06:56;;;;;;;12.40;5.57;;;;;;;-1.63;77.03;100009.50;8313983;28;20123;-72
2022/03/02 03:10:58;;;;;;;13.27;6.43;;;;;;;-1.61;77.64;100007.94;8307261;28;20055;-72
2022/03/02 03:14:59;;;;;;;11.57;6.17;;;;;;;-1.64;76.53;99993.34;8309802;28;20063;-72
2022/03/02 03:19:01;;;;;;;12.53;6.40;;;;;;;-1.69;77.11;100007.50;8306265;28;20057;-72
2022/03/02 03:23:06;;;;;;;10.33;5.53;;;;;;;-1.70;76.70;100003.22;8307775;28;20139;-72
2022/03/02 03:27:07;;;;;;;9.93;5.13;;;;;;;-1.69;77.00;99994.78;8310078;28;20581;-73
2022/03/02 03:31:09;;;;;;;8.57;5.43;;;;;;;-1.76;77.36;99997.81;8305421;28;20100;-72
2022/03/02 03:35:12;;;;;;;10.57;5.30;;;;;;;-1.76;76.71;100005.44;8306649;28;20081;-72
2022/03/02 03:39:14;;;;;;;8.20;5.17;;;;;;;-1.85;77.53;100021.06;8306418;28;20052;-72
2022/03/02 03:43:15;;;;;;;12.27;6.00;;;;;;;-1.84;77.87;100025.38;8309234;28;20501;-72
2022/03/02 03:47:18;;;;;;;11.60;5.37;;;;;;;-1.80;78.50;100025.53;8282272;28;20291;-72
2022/03/02 03:51:20;;;;;;;9.23;4.80;;;;;;;-1.79;78.44;100027.31;8299646;28;20082;-73
2022/03/02 03:55:21;;;;;;;10.97;5.87;;;;;;;-1.79;77.55;100022.22;8298968;28;20152;-73
2022/03/02 03:59:23;;;;;;;8.47;5.17;;;;;;;-1.74;78.25;100020.78;8298886;28;20731;-73
2022/03/02 04:03:25;;;;;;;8.70;5.27;;;;;;;-1.75;78.88;100016.50;8294261;28;20510;-73
2022/03/02 04:07:27;;;;;;;;;;;;;;;-1.71;78.49;100010.78;8297240;28;20049;-73
2022/03/02 04:11:30;;;;;;;7.07;4.30;;;;;;;-1.68;78.81;100009.25;8302060;28;19925;-72
2022/03/02 04:15:32;;;;;;;7.67;4.77;;;;;;;-1.61;78.55;100002.84;8286947;28;20053;-73
2022/03/02 04:19:35;;;;;;;9.83;5.03;;;;;;;-1.58;78.75;99996.25;8302664;28;20045;-73
2022/03/02 04:23:36;;;;;;;7.43;4.43;;;;;;;-1.54;78.39;100000.69;8297209;28;20045;-73
2022/03/02 04:27:38;;;;;;;10.00;4.50;;;;;;;-1.52;77.90;100001.66;8297742;28;20057;-73
2022/03/02 04:31:40;;;;;;;4.55;3.10;;;;;;;-1.50;77.82;99995.75;8283391;28;20054;-73
2022/03/02 04:35:45;;;;;;;9.53;3.57;;;;;;;-1.45;78.36;99990.09;8303080;28;20097;-73
2022/03/02 04:39:47;;;;;;;8.73;4.50;;;;;;;-1.44;77.91;99988.44;8304648;28;20122;-73
2022/03/02 04:43:48;;;;;;;6.47;4.00;;;;;;;-1.48;77.42;99991.63;8306801;28;20089;-73
2022/03/02 04:47:50;;;;;;;5.20;3.83;;;;;;;-1.49;77.85;99983.09;8281729;28;20058;-73
2022/03/02 04:51:52;;;;;;;3.88;2.72;;;;;;;-1.46;78.66;99983.25;8305976;28;20045;-73
2022/03/02 04:55:53;;;;;;;6.77;4.13;;;;;;;-1.50;77.42;99978.81;8305354;28;20148;-73
2022/03/02 04:59:55;;;;;;;6.13;4.07;;;;;;;-1.53;77.09;99976.97;8300473;28;20514;-73
2022/03/02 05:03:57;;;;;;;5.88;3.75;;;;;;;-1.52;78.07;99975.31;8300474;28;20187;-73
2022/03/02 05:07:58;;;;;;;7.73;3.73;;;;;;;-1.52;77.94;99962.56;8306421;28;20049;-73
2022/03/02 05:12:02;;;;;;;6.27;4.33;;;;;;;-1.52;78.05;99968.53;8307867;28;20128;-73
2022/03/02 05:16:04;;;;;;;7.10;4.20;;;;;;;-1.52;77.48;99963.44;8303191;28;20461;-73
2022/03/02 05:20:07;;;;;;;6.35;2.80;;;;;;;-1.52;78.13;99965.13;8309460;28;20072;-73
2022/03/02 05:24:08;;;;;;;6.63;4.30;;;;;;;-1.60;77.88;99957.09;8307699;28;20227;-73
2022/03/02 05:28:10;;;;;;;9.03;3.47;;;;;;;-1.66;78.07;99956.75;8304037;28;20045;-73
2022/03/02 05:32:11;;;;;;;5.50;3.77;;;;;;;-1.70;77.86;99959.06;8303176;28;20959;-73
2022/03/02 05:36:13;;;;;;;6.97;3.97;;;;;;;-1.71;78.55;99957.31;8310280;28;20064;-73
2022/03/02 05:40:17;;;;;;;6.33;4.30;;;;;;;-1.74;78.34;99952.06;8291356;28;20474;-73
2022/03/02 05:44:25;;;;;;;5.67;3.50;;;;;;;-1.77;78.26;99946.81;8307419;28;20142;-73
2022/03/02 05:48:27;;;;;;;6.90;4.65;;;;;;;-1.78;79.10;99951.03;8299611;28;20057;-73
2022/03/02 05:52:28;;;;;;;6.87;4.23;;;;;;;-1.75;79.84;99950.31;8308975;28;20055;-74
2022/03/02 05:56:31;;;;;;;5.93;3.97;;;;;;;-1.69;80.04;99958.25;8303429;28;20397;-73
2022/03/02 06:00:33;;;;;;;5.67;3.83;;;;;;;-1.71;79.38;99958.19;8307706;28;20140;-73
2022/03/02 06:04:34;;;;;;;8.47;4.40;;;;;;;-1.65;79.50;99950.88;8306516;28;20053;-73
2022/03/02 06:08:36;;;;;;;5.83;4.10;;;;;;;-1.55;79.79;99959.88;8305143;28;20141;-73
2022/03/02 06:12:38;;;;;;;6.73;4.03;;;;;;;-1.52;79.51;99953.25;8308825;28;20048;-73
2022/03/02 06:16:40;;;;;;;8.35;4.25;;;;;;;-1.43;79.56;99964.75;8287574;28;20053;-73
2022/03/02 06:20:42;;;;;;;8.30;4.03;;;;;;;-1.41;79.18;99964.03;8293570;28;20049;-73
2022/03/02 06:24:44;;;;;;;9.32;4.50;;;;;;;-1.45;79.39;99969.72;8306134;28;20050;-73
2022/03/02 06:28:47;;;;;;;5.40;4.07;;;;;;;-1.36;79.77;99974.44;8306413;28;20052;-72
2022/03/02 06:32:48;;;;;;;;;;;;;;;-1.26;80.72;99980.09;8299563;28;20075;-73
2022/03/02 06:36:51;;;;;;;7.53;4.40;;;;;;;-1.18;80.46;99979.63;8282364;28;20063;-72
2022/03/02 06:41:02;;;;;;;7.87;4.20;;;;;;;-1.12;79.54;99972.28;8294500;28;20068;-72
2022/03/02 06:45:13;;;;;;;6.67;4.10;;;;;;;-1.05;79.72;99979.44;8302652;28;20929;-72
2022/03/02 06:49:25;;;;;;;6.37;4.13;;;;;;;-0.97;80.12;99971.38;8293344;28;20057;-72
2022/03/02 06:53:35;;;;;;;8.65;4.78;;;;;;;-0.86;79.95;99973.59;8285019;28;20053;-73
2022/03/02 06:57:38;;;;;;;9.37;5.43;;;;;;;-0.81;79.28;99979.81;8304447;28;20045;-73
2022/03/02 07:01:49;;;;;;;11.00;5.47;;;;;;;-0.74;78.64;99987.81;8295468;28;20340;-73
2022/03/02 07:05:53;;;;;;;11.80;5.60;;;;;;;-0.70;79.35;99982.09;8304187;28;20053;-73
2022/03/02 07:09:55;;;;;;;10.93;6.30;;;;;;;-0.59;78.85;99992.81;8290010;28;20453;-70
2022/03/02 07:13:57;;;;;;;11.93;5.70;;;;;;;-0.53;78.39;99988.03;8300162;28;20053;-73
2022/03/02 07:18:00;;;;;;;14.93;7.83;;;;;;;-0.53;78.54;100000.78;8298601;28;20071;-73
2022/03/02 07:22:05;;;;;;;14.20;6.87;;;;;;;-0.46;78.69;99997.72;8288577;28;20132;-73
2022/03/02 07:26:08;;;;;;;13.33;6.73;;;;;;;-0.36;78.03;100004.13;8304220;28;20053;-73
2022/03/02 07:30:10;;;;;;;9.90;6.47;;;;;;;-0.22;78.17;100007.34;8284397;28;21589;-73
2022/03/02 07:34:14;;;;;;;11.75;5.90;;;;;;;-0.10;78.21;100000.28;8309004;28;20044;-73
2022/03/02 07:38:15;;;;;;;11.53;6.10;;;;;;;0.00;78.45;99997.38;8304855;28;20045;-73
2022/03/02 07:42:19;;;;;;;11.88;6.38;;;;;;;0.18;77.71;99985.47;8306773;28;20626;-73
2022/03/02 07:46:21;;;;;;;14.97;7.17;;;;;;;0.32;76.69;99982.66;8301291;28;20093;-74
2022/03/02 07:50:23;;;;;;;15.65;6.63;;;;;;;0.45;75.26;99984.97;8301599;28;20690;-73
2022/03/02 07:54:29;;;;;;;13.23;6.72;;;;;;;0.60;75.18;99978.00;8303618;28;20068;-73
2022/03/02 07:58:31;;;;;;;11.87;7.03;;;;;;;0.75;75.47;99986.34;8304670;28;20141;-73
2022/03/02 08:02:33;;;;;;;15.23;7.25;;;;;;;0.89;75.39;99981.81;8298283;28;20119;-73
2022/03/02 08:06:39;;;;;;;13.13;7.20;;;;;;;1.11;74.70;99983.63;8305470;28;20061;-72
2022/03/02 08:10:42;;;;;;;13.40;6.83;;;;;;;1.32;73.81;99981.97;8302037;28;20100;-73
2022/03/02 08:14:44;;;;;;;19.47;9.43;;;;;;;1.57;72.92;99983.84;8301849;28;20053;-71
2022/03/02 08:18:46;;;;;;;17.03;8.53;;;;;;;1.80;71.12;99975.44;8292869;28;20068;-74
2022/03/02 08:22:51;;;;;;;16.40;7.73;;;;;;;2.00;69.47;99977.91;8299018;28;20622;-73
2022/03/02 08:26:58;;;;;;;16.73;7.33;;;;;;;2.16;67.97;99977.69;8298904;28;20136;-73
2022/03/02 08:30:59;;;;;;;7.73;5.13;;;;;;;2.28;66.26;99978.13;8308308;28;20074;-74
2022/03/02 08:35:01;;;;;;;8.48;5.10;;;;;;;2.43;64.37;99985.53;8336452;28;20057;-74
2022/03/02 08:39:09;;;;;;;7.40;4.90;;;;;;;2.56;63.23;99974.91;8337422;28;20053;-74
2022/03/02 08:43:13;;;;;;;7.40;4.13;;;;;;;2.71;62.49;99972.91;8334159;28;20160;-73
2022/03/02 08:47:14;;;;;;;8.30;4.83;;;;;;;2.86;61.62;99979.38;8312847;28;20164;-71
2022/03/02 08:51:20;;;;;;;5.15;4.07;;;;;;;3.01;60.06;99965.41;8322444;28;20053;-72
2022/03/02 08:55:24;;;;;;;8.53;4.73;;;;;;;3.17;59.35;99963.38;8327726;28;20155;-72
2022/03/02 08:59:26;;;;;;;6.87;4.43;;;;;;;3.29;57.94;99962.13;8341018;28;20057;-72
2022/03/02 09:03:32;;;;;;;9.95;4.82;;;;;;;3.41;56.84;99956.53;8311240;28;20063;-71
2022/03/02 09:07:35;;;;;;;6.97;4.33;;;;;;;3.57;56.46;99958.75;8307739;28;20069;-72
2022/03/02 09:11:38;;;;;;;7.03;3.85;;;;;;;3.72;54.81;99958.38;8335008;28;20045;-72
2022/03/02 09:15:41;;;;;;;5.37;3.83;;;;;;;3.86;55.16;99957.13;8330748;28;20064;-72
2022/03/02 09:19:42;;;;;;;6.70;4.20;;;;;;;4.07;54.65;99958.59;8335806;28;20053;-72
2022/03/02 09:23:45;;;;;;;5.57;4.00;;;;;;;4.18;53.65;99950.41;8312683;28;20053;-72
2022/03/02 09:27:46;;;;;;;8.30;3.83;;;;;;;4.36;53.44;99947.50;8318273;28;20135;-72
2022/03/02 09:31:50;;;;;;;6.53;4.40;;;;;;;4.52;53.36;99946.25;8317044;28;20172;-72
2022/03/02 09:35:54;;;;;;;5.10;4.10;;;;;;;4.70;52.43;99946.78;8319395;28;20057;-72
2022/03/02 09:39:57;;;;;;;12.73;4.40;;;;;;;4.82;51.57;99934.22;8331687;28;20221;-72
2022/03/02 09:43:59;;;;;;;7.82;4.38;;;;;;;5.00;51.72;99931.28;8320206;28;20442;-72
2022/03/02 09:48:04;;;;;;;6.47;3.87;;;;;;;5.15;50.97;99926.53;8333266;28;20057;-72
2022/03/02 09:52:12;;;;;;;6.83;4.63;;;;;;;5.38;50.76;99915.94;8315314;28;20088;-72
2022/03/02 09:56:15;;;;;;;6.83;4.00;;;;;;;5.63;50.20;99923.44;8314083;28;20063;-72
2022/03/02 10:00:18;;;;;;;5.85;4.20;;;;;;;5.77;49.34;99926.34;8334374;28;20044;-72
2022/03/02 10:04:22;;;;;;;4.67;3.70;;;;;;;5.82;48.61;99926.47;8329922;28;20095;-72
2022/03/02 10:08:30;;;;;;;5.97;3.93;;;;;;;5.94;48.94;99926.78;8335375;28;20048;-72
2022/03/02 10:12:32;;;;;;;5.70;4.17;;;;;;;6.13;48.63;99920.31;8340442;28;20797;-72
2022/03/02 10:16:41;;;;;;;5.03;3.72;;;;;;;6.49;47.66;99917.66;8335800;28;20136;-72
2022/03/02 10:21:05;;;;;;;7.90;4.70;;;;;;;6.86;46.63;99919.25;8308476;28;20923;-71
2022/03/02 10:25:10;;;;;;;8.33;4.83;;;;;;;7.01;46.09;99921.25;8301829;28;20060;-72
2022/03/02 10:29:29;;;;;;;10.10;4.57;;;;;;;7.20;45.99;99923.31;8286933;28;20060;-72
2022/03/02 10:33:37;;;;;;;7.60;4.23;;;;;;;7.24;45.46;99920.81;8298982;28;20049;-71
2022/03/02 10:37:46;;;;;;;6.83;4.80;;;;;;;7.23;45.63;99911.31;8305327;28;20080;-72
2022/03/02 10:41:48;;;;;;;5.93;4.77;;;;;;;7.22;44.88;99913.88;8302677;28;20664;-72
2022/03/02 10:45:51;;;;;;;9.07;5.00;;;;;;;7.19;45.15;99922.44;8297514;28;20065;-72
2022/03/02 10:49:54;;;;;;;8.35;5.88;;;;;;;7.25;44.75;99921.66;8301083;28;20411;-72
2022/03/02 10:53:57;;;;;;;7.70;5.32;;;;;;;7.26;44.57;99929.44;8304137;28;20080;-72
2022/03/02 10:58:02;;;;;;;10.07;5.53;;;;;;;7.30;44.55;99919.16;8302938;28;20060;-72
2022/03/02 11:02:04;;;;;;;9.73;4.97;;;;;;;7.41;45.25;99917.63;8317915;28;20060;-72
2022/03/02 11:06:06;;;;;;;7.22;4.28;;;;;;;7.47;44.05;99909.97;8340123;28;20254;-72
2022/03/02 11:10:11;;;;;;;8.27;3.85;;;;;;;7.58;43.62;99908.44;8322040;28;20057;-72
2022/03/02 11:14:13;;;;;;;7.30;4.10;;;;;;;7.70;42.97;99906.03;8343390;28;20400;-72
2022/03/02 11:18:19;;;;;;;6.70;4.07;;;;;;;7.81;42.56;99888.13;8339223;28;20679;-71
2022/03/02 11:22:22;;;;;;;5.13;3.17;;;;;;;7.83;42.57;99889.88;8314796;28;20045;-72
2022/03/02 11:26:28;;;;;;;5.57;4.53;;;;;;;7.97;42.09;99895.25;8344745;28;20144;-72
2022/03/02 11:30:30;;;;;;;5.47;4.03;;;;;;;8.10;42.06;99884.22;8312298;28;20057;-71
2022/03/02 11:34:33;;;;;;;6.72;5.40;;;;;;;8.31;41.21;99882.75;8340187;28;20434;-72
2022/03/02 11:38:38;;;;;;;4.93;3.42;;;;;;;8.60;41.00;99872.78;8334652;28;20053;-71
2022/03/02 11:42:42;;;;;;;6.82;4.55;;;;;;;8.85;40.31;99869.59;8336751;28;20140;-71
2022/03/02 11:46:47;;;;;;;7.97;4.47;;;;;;;8.90;40.26;99862.75;8333192;28;20753;-72
2022/03/02 11:51:00;;;;;;;5.43;3.90;;;;;;;9.08;40.12;99855.16;8327601;28;20053;-72
2022/03/02 11:55:09;;;;;;;5.20;4.10;;;;;;;9.44;40.48;99851.13;8315456;28;20136;-72
2022/03/02 11:59:11;;;;;;;7.13;4.22;;;;;;;9.74;39.17;99847.03;8337507;28;20048;-72
2022/03/02 12:03:18;;;;;;;6.20;4.00;;;;;;;10.04;38.66;99836.78;8327163;28;20636;-72
2022/03/02 12:07:21;;;;;;;10.63;5.20;;;;;;;10.32;38.70;99832.63;8338054;28;20059;-72
2022/03/02 12:11:25;;;;;;;8.38;4.68;;;;;;;10.44;36.57;99832.69;8338782;28;20738;-72
2022/03/02 12:15:42;;;;;;;5.00;4.18;;;;;;;10.42;37.96;99825.75;8313133;28;20124;-72
2022/03/02 12:19:46;;;;;;;5.40;4.68;;;;;;;10.39;36.85;99824.00;8332369;28;20053;-72
2022/03/02 12:23:53;;;;;;;5.63;4.57;;;;;;;10.41;36.87;99813.63;8329223;28;20084;-73
2022/03/02 12:28:00;;;;;;;6.00;4.00;;;;;;;10.30;36.60;99813.59;8337006;28;20143;-72
2022/03/02 12:32:17;;;;;;;6.45;4.30;;;;;;;10.24;37.04;99806.66;8322992;28;20077;-72
2022/03/02 12:36:18;;;;;;;8.95;4.90;;;;;;;10.27;37.05;99798.03;8332936;28;20442;-73
2022/03/02 12:40:41;;;;;;;8.15;4.60;;;;;;;10.21;37.96;99796.25;8340578;28;20091;-72
2022/03/02 12:44:47;;;;;;;4.80;4.22;;;;;;;10.26;37.53;99791.09;8340556;28;20048;-72
2022/03/02 12:48:51;;;;;;;6.25;4.22;;;;;;;10.41;38.04;99779.88;8296009;28;20079;-71
2022/03/02 12:53:02;;;;;;;8.52;4.60;;;;;;;10.62;37.30;99777.34;8317433;28;20045;-73
2022/03/02 12:57:06;;;;;;;6.10;4.30;;;;;;;10.79;36.75;99769.56;8325591;28;20080;-73
2022/03/02 13:01:07;;;;;;;7.75;4.60;;;;;;;11.13;36.41;99763.50;8301345;28;20476;-70
2022/03/02 13:05:31;;;;;;;5.25;4.45;;;;;;;11.35;35.98;99756.53;8328130;28;20049;-72
2022/03/02 13:09:38;;;;;;;6.32;4.60;;;;;;;11.26;35.02;99753.09;8336483;28;20050;-72
2022/03/02 13:13:41;;;;;;;5.30;4.78;;;;;;;11.05;35.50;99753.97;8333409;28;20040;-72
2022/03/02 13:17:42;;;;;;;8.90;4.68;;;;;;;10.87;35.51;99752.25;8303602;28;20068;-72
2022/03/02 13:21:58;;;;;;;5.73;4.77;;;;;;;10.73;36.46;99746.16;8323694;28;20045;-72
2022/03/02 13:26:00;;;;;;;6.25;5.00;;;;;;;10.49;37.41;99755.66;8332061;28;20171;-72
2022/03/02 13:30:08;;;;;;;5.47;4.65;;;;;;;10.39;36.68;99738.34;8335233;28;20080;-72
2022/03/02 13:34:10;;;;;;;6.10;4.57;;;;;;;10.40;36.62;99747.00;8345009;28;20080;-72
2022/03/02 13:38:12;;;;;;;5.50;4.45;;;;;;;10.48;36.08;99735.78;8325051;28;20055;-72
2022/03/02 13:42:25;;;;;;;6.57;4.43;;;;;;;10.63;36.00;99742.72;8324967;28;20087;-72
2022/03/02 13:46:28;;;;;;;4.40;4.00;;;;;;;10.65;35.95;99745.31;8338163;28;20145;-72
2022/03/02 13:50:56;;;;;;;6.28;4.13;;;;;;;10.61;35.36;99743.59;8343895;28;20145;-72
2022/03/02 13:55:22;;;;;;;4.82;3.75;;;;;;;10.58;35.81;99737.50;8325571;28;20554;-72
2022/03/02 13:59:43;;;;;;;4.15;3.75;;;;;;;10.59;36.00;99739.25;8340261;28;20591;-72
2022/03/02 14:03:57;;;;;;;5.35;4.18;;;;;;;10.60;35.89;99740.13;8333635;28;20063;-72
2022/03/02 14:08:05;;;;;;;4.80;4.35;;;;;;;10.67;35.96;99734.06;8340079;28;20052;-72
2022/03/02 14:12:07;;;;;;;7.15;4.80;;;;;;;10.77;36.69;99737.50;8343836;28;20428;-72
2022/03/02 14:16:09;;;;;;;5.43;4.20;;;;;;;10.81;36.19;99731.47;8320472;28;20053;-72
2022/03/02 14:20:11;;;;;;;7.97;5.28;;;;;;;10.85;36.06;99728.88;8341594;28;20048;-73
2022/03/02 14:24:15;;;;;;;;;;;;;;;10.89;35.94;99715.00;8328779;28;20080;-72
2022/03/02 14:28:16;;;;;;;4.07;3.65;;;;;;;10.94;36.54;99722.78;8339192;28;19935;-72
2022/03/02 14:32:18;;;;;;;5.60;4.45;;;;;;;10.89;35.38;99721.94;8337511;28;20049;-73
2022/03/02 14:36:20;;;;;;;6.95;4.18;;;;;;;10.84;36.11;99713.28;8333192;28;20485;-74
2022/03/02 14:40:29;;;;;;;6.70;4.37;;;;;;;10.77;36.00;99711.53;8324966;28;20063;-74
2022/03/02 14:44:32;;;;;;;7.18;4.97;;;;;;;10.76;35.96;99704.59;8341428;28;20587;-74
2022/03/02 14:48:34;;;;;;;6.20;4.95;;;;;;;10.70;36.61;99696.84;8341672;28;20061;-74
2022/03/02 14:52:36;;;;;;;6.88;4.80;;;;;;;10.61;36.32;99695.13;8325711;28;20121;-74
2022/03/02 14:56:44;;;;;;;10.65;5.18;;;;;;;10.49;37.15;99693.38;8343402;28;20467;-73
2022/03/02 15:00:48;;;;;;;8.10;4.82;;;;;;;10.41;37.81;99696.81;8317689;28;20060;-74
2022/03/02 15:04:59;;;;;;;5.95;5.03;;;;;;;10.32;38.17;99702.88;8339931;28;20084;-73
2022/03/02 15:09:09;;;;;;;7.13;4.97;;;;;;;10.21;37.95;99692.44;8341397;28;20057;-73
2022/03/02 15:17:47;;;;;;;5.80;4.95;;;;;;;10.06;37.94;99694.13;8338197;28;20521;-73
2022/03/02 15:21:48;;;;;;;5.18;4.60;;;;;;;9.94;37.38;99692.38;8334539;28;20144;-73
2022/03/02 15:25:50;;;;;;;7.30;5.07;;;;;;;9.84;38.20;99678.50;8340830;28;20061;-73
2022/03/02 15:30:05;;;;;;;7.15;4.70;;;;;;;9.79;39.24;99682.81;8336619;28;20072;-74
2022/03/02 15:34:15;;;;;;;8.15;4.88;;;;;;;9.72;39.07;99683.66;8335052;28;20081;-73
2022/03/02 15:38:20;;;;;;;7.68;4.57;;;;;;;9.65;39.12;99685.34;8341322;28;20450;-73
2022/03/02 15:42:30;;;;;;;8.23;4.07;;;;;;;9.58;39.10;99678.41;8334455;28;20053;-73
2022/03/02 15:46:32;;;;;;;5.80;4.53;;;;;;;9.51;39.23;99680.94;8302067;28;20165;-74
2022/03/02 15:50:41;;;;;;;5.93;4.47;;;;;;;9.45;40.09;99684.38;8319331;28;20049;-73
2022/03/02 15:54:56;;;;;;;7.47;4.57;;;;;;;9.37;39.68;99678.31;8317393;28;20338;-73
2022/03/02 15:58:57;;;;;;;6.22;4.38;;;;;;;9.32;40.25;99680.00;8333583;28;20085;-73
2022/03/02 16:03:01;;;;;;;5.50;4.70;;;;;;;9.21;39.42;99676.50;8326630;28;20141;-73
2022/03/02 16:07:03;;;;;;;11.88;4.93;;;;;;;9.09;39.79;99682.47;8334472;28;20478;-73
2022/03/02 16:11:17;;;;;;;4.43;3.97;;;;;;;9.03;40.62;99690.22;8335229;28;20067;-74
2022/03/02 16:15:44;;;;;;;5.82;4.55;;;;;;;8.92;40.82;99681.47;8316718;28;20057;-73
2022/03/02 16:19:45;;;;;;;6.13;4.55;;;;;;;8.85;41.35;99675.41;8336453;28;20060;-73
2022/03/02 16:23:48;;;;;;;6.90;5.18;;;;;;;8.76;41.07;99672.75;8334112;28;20496;-73
2022/03/02 16:28:01;;;;;;;;;;;;;;;8.63;41.39;99670.94;8306314;28;20424;-73
2022/03/02 16:32:03;;;;;;;6.72;4.07;;;;;;;8.56;41.46;99671.72;8321559;28;19925;-73
2022/03/02 16:36:05;;;;;;;5.50;4.40;;;;;;;8.46;41.92;99665.63;8322259;28;20062;-73
2022/03/02 16:40:27;;;;;;;5.78;4.38;;;;;;;8.39;42.36;99667.25;8326606;28;20365;-73
2022/03/02 16:44:34;;;;;;;8.15;5.32;;;;;;;8.32;43.30;99668.03;8323801;28;20353;-73
2022/03/02 16:48:35;;;;;;;7.03;5.00;;;;;;;8.26;43.33;99665.41;8334050;28;20053;-73
2022/03/02 16:52:36;;;;;;;7.40;5.72;;;;;;;8.19;44.10;99666.19;8319105;28;20128;-73
2022/03/02 16:56:38;;;;;;;8.68;6.03;;;;;;;8.06;45.48;99666.91;8328778;28;20053;-73
2022/03/02 17:00:41;;;;;;;8.70;5.93;;;;;;;7.96;44.88;99665.97;8332271;28;20542;-73
2022/03/02 17:04:42;;;;;;;10.00;6.60;;;;;;;7.80;46.33;99669.25;8314639;28;20072;-73
2022/03/02 17:08:44;;;;;;;10.00;7.10;;;;;;;7.61;47.62;99670.75;8321014;28;20070;-73
2022/03/02 17:12:46;;;;;;;7.80;5.70;;;;;;;7.39;47.90;99677.38;8344227;28;20041;-73
2022/03/02 17:16:48;;;;;;;7.25;5.13;;;;;;;7.14;49.21;99675.28;8335231;28;20873;-72
2022/03/02 17:20:50;;;;;;;6.68;4.97;;;;;;;6.88;49.21;99680.09;8338752;28;20056;-72
2022/03/02 17:24:52;;;;;;;8.53;6.07;;;;;;;6.61;48.21;99683.09;8325914;28;20063;-73
2022/03/02 17:28:56;;;;;;;8.00;5.22;;;;;;;6.37;48.68;99688.72;8340388;28;20052;-72
2022/03/02 17:32:57;;;;;;;8.30;5.80;;;;;;;6.13;49.45;99685.72;8321996;28;20148;-73
2022/03/02 17:36:59;;;;;;;8.87;5.80;;;;;;;5.90;51.09;99681.00;8344748;28;20053;-72
2022/03/02 17:41:00;;;;;;;9.83;5.40;;;;;;;5.73;51.88;99692.66;8344067;28;20347;-72
2022/03/02 17:45:04;;;;;;;12.10;5.70;;;;;;;5.58;53.30;99702.66;8314007;28;20529;-72
2022/03/02 17:49:06;;;;;;;5.73;4.57;;;;;;;5.38;53.89;99694.50;8326070;28;20081;-72
2022/03/02 17:53:07;;;;;;;9.45;4.45;;;;;;;5.10;55.07;99696.50;8334136;28;20081;-72
2022/03/02 17:57:29;;;;;;;10.13;5.67;;;;;;;4.91;55.37;99699.50;8314475;28;20499;-72
2022/03/02 18:01:31;;;;;;;9.03;5.53;;;;;;;4.73;55.80;99714.50;8308754;28;20410;-72
2022/03/02 18:05:34;;;;;;;8.80;6.18;;;;;;;4.58;55.41;99711.53;8340564;28;20049;-72
2022/03/02 18:09:36;;;;;;;9.38;6.82;;;;;;;4.45;56.60;99707.78;8340686;28;20145;-73
2022/03/02 18:13:41;;;;;;;;;;;;;;;4.34;55.63;99702.41;8339974;28;20137;-72
2022/03/02 18:17:43;;;;;;;10.43;6.13;;;;;;;4.27;55.65;99708.19;8317948;28;19924;-72
2022/03/02 18:21:45;;;;;;;8.10;5.63;;;;;;;4.19;55.65;99702.00;8332934;28;20131;-72
2022/03/02 18:25:47;;;;;;;6.05;5.18;;;;;;;4.10;56.03;99697.47;8321001;28;20064;-73
2022/03/02 18:29:48;;;;;;;8.10;6.27;;;;;;;3.98;56.58;99702.31;8321321;28;20152;-72
2022/03/02 18:33:50;;;;;;;9.43;5.60;;;;;;;3.88;55.72;99697.75;8333047;28;20140;-72
2022/03/02 18:37:53;;;;;;;;;;;;;;;3.80;58.25;99704.38;8338255;28;20090;-72
2022/03/02 18:41:56;;;;;;;7.63;4.70;;;;;;;3.66;58.75;99704.00;8337769;28;19925;-73
2022/03/02 18:45:58;;;;;;;8.07;5.10;;;;;;;3.56;59.04;99694.28;8315424;28;20780;-73
2022/03/02 18:50:00;;;;;;;9.73;4.77;;;;;;;3.42;59.33;99688.78;8311326;28;20137;-72
2022/03/02 18:54:02;;;;;;;9.77;5.78;;;;;;;3.30;60.61;99696.09;8314043;28;20145;-73
2022/03/02 18:58:04;;;;;;;10.20;5.60;;;;;;;3.24;61.43;99698.50;8340408;28;20156;-73
2022/03/02 19:02:06;;;;;;;10.37;5.73;;;;;;;3.16;60.96;99684.56;8332343;28;20473;-72
2022/03/02 19:06:08;;;;;;;18.13;5.90;;;;;;;3.02;61.87;99686.69;8320160;28;20176;-73
2022/03/02 19:10:12;;;;;;;9.57;5.20;;;;;;;2.98;62.76;99690.88;8309657;28;20048;-72
2022/03/02 19:14:13;;;;;;;10.17;5.70;;;;;;;2.93;63.35;99692.44;8313810;28;20040;-73